sensor_id;sensor_type;location;lat;lon;timestamp;pressure;altitude;pressure_sealevel;temperature;humidity
69219;BME280;56232;53.384;-2.732;2023-05-11T00:00:48;100913.89;;;14.29;32.33
69219;BME280;56232;53.384;-2.732;2023-05-11T00:03:14;100909.17;;;13.65;32.12
69219;BME280;56232;53.384;-2.732;2023-05-11T00:05:39;100909.24;;;13.92;32.05
69219;BME280;56232;53.384;-2.732;2023-05-11T00:08:05;100907.98;;;13.88;32.36
69219;BME280;56232;53.384;-2.732;2023-05-11T00:10:31;100907.93;;;13.88;32.58
69219;BME280;56232;53.384;-2.732;2023-05-11T00:12:56;100906.45;;;13.90;32.52
69219;BME280;56232;53.384;-2.732;2023-05-11T00:15:22;100904.51;;;13.97;32.39
69219;BME280;56232;53.384;-2.732;2023-05-11T00:17:48;100906.37;;;14.63;32.70
69219;BME280;56232;53.384;-2.732;2023-05-11T00:20:13;100905.92;;;13.74;32.50
69219;BME280;56232;53.384;-2.732;2023-05-11T00:22:39;100908.70;;;13.84;32.57
69219;BME280;56232;53.384;-2.732;2023-05-11T00:25:05;100907.09;;;13.94;32.66
69219;BME280;56232;53.384;-2.732;2023-05-11T00:27:30;100909.39;;;13.96;32.49
69219;BME280;56232;53.384;-2.732;2023-05-11T00:29:56;100909.15;;;14.41;32.69
69219;BME280;56232;53.384;-2.732;2023-05-11T00:32:21;100909.98;;;14.51;32.71
69219;BME280;56232;53.384;-2.732;2023-05-11T00:34:47;100914.02;;;14.13;32.67
69219;BME280;56232;53.384;-2.732;2023-05-11T00:37:13;100913.85;;;14.19;32.76
69219;BME280;56232;53.384;-2.732;2023-05-11T00:39:38;100914.27;;;14.26;32.36
69219;BME280;56232;53.384;-2.732;2023-05-11T00:42:04;100912.94;;;14.67;32.49
69219;BME280;56232;53.384;-2.732;2023-05-11T00:44:30;100911.03;;;14.12;32.40
69219;BME280;56232;53.384;-2.732;2023-05-11T00:46:56;100912.25;;;14.14;32.73
69219;BME280;56232;53.384;-2.732;2023-05-11T00:49:21;100911.65;;;14.19;32.81
69219;BME280;56232;53.384;-2.732;2023-05-11T00:51:47;100912.86;;;14.16;32.56
69219;BME280;56232;53.384;-2.732;2023-05-11T00:54:13;100913.93;;;14.16;32.81
69219;BME280;56232;53.384;-2.732;2023-05-11T00:56:38;100916.20;;;14.68;32.86
69219;BME280;56232;53.384;-2.732;2023-05-11T00:59:04;100916.49;;;14.21;33.12
69219;BME280;56232;53.384;-2.732;2023-05-11T01:01:29;100916.35;;;14.74;33.20
69219;BME280;56232;53.384;-2.732;2023-05-11T01:03:55;100916.78;;;14.27;33.32
69219;BME280;56232;53.384;-2.732;2023-05-11T01:06:26;100919.14;;;14.25;33.40
69219;BME280;56232;53.384;-2.732;2023-05-11T01:08:49;100915.73;;;13.62;32.63
69219;BME280;56232;53.384;-2.732;2023-05-11T01:11:14;100921.06;;;14.22;32.98
69219;BME280;56232;53.384;-2.732;2023-05-11T01:13:41;100921.98;;;14.23;33.11
69219;BME280;56232;53.384;-2.732;2023-05-11T01:16:07;100925.16;;;14.27;33.28
69219;BME280;56232;53.384;-2.732;2023-05-11T01:18:32;100926.52;;;14.23;33.16
69219;BME280;56232;53.384;-2.732;2023-05-11T01:20:57;100930.62;;;13.64;33.20
69219;BME280;56232;53.384;-2.732;2023-05-11T01:23:36;100929.97;;;14.31;33.42
69219;BME280;56232;53.384;-2.732;2023-05-11T01:25:54;100931.88;;;14.35;33.38
69219;BME280;56232;53.384;-2.732;2023-05-11T01:28:23;100932.82;;;14.37;33.26
69219;BME280;56232;53.384;-2.732;2023-05-11T01:30:42;100932.66;;;13.81;33.39
69219;BME280;56232;53.384;-2.732;2023-05-11T01:33:06;100929.11;;;13.84;33.35
69219;BME280;56232;53.384;-2.732;2023-05-11T01:35:30;100933.25;;;14.47;33.60
69219;BME280;56232;53.384;-2.732;2023-05-11T01:37:56;100932.41;;;14.46;33.05
69219;BME280;56232;53.384;-2.732;2023-05-11T01:40:23;100935.36;;;14.51;33.39
69219;BME280;56232;53.384;-2.732;2023-05-11T01:42:49;100935.45;;;14.61;33.54
69219;BME280;56232;53.384;-2.732;2023-05-11T01:45:12;100934.19;;;14.68;33.32
69219;BME280;56232;53.384;-2.732;2023-05-11T01:47:37;100934.99;;;13.71;33.39
69219;BME280;56232;53.384;-2.732;2023-05-11T01:50:03;100936.52;;;13.80;33.62
69219;BME280;56232;53.384;-2.732;2023-05-11T01:52:29;100937.47;;;15.05;33.72
69219;BME280;56232;53.384;-2.732;2023-05-11T01:54:55;100935.83;;;14.53;33.87
69219;BME280;56232;53.384;-2.732;2023-05-11T01:57:21;100938.80;;;14.14;33.92
69219;BME280;56232;53.384;-2.732;2023-05-11T01:59:45;100942.76;;;14.73;33.95
69219;BME280;56232;53.384;-2.732;2023-05-11T02:02:11;100946.12;;;15.44;33.96
69219;BME280;56232;53.384;-2.732;2023-05-11T02:04:37;100947.93;;;14.87;34.07
69219;BME280;56232;53.384;-2.732;2023-05-11T02:07:02;100951.85;;;14.41;33.81
69219;BME280;56232;53.384;-2.732;2023-05-11T02:09:28;100953.39;;;14.45;33.81
69219;BME280;56232;53.384;-2.732;2023-05-11T02:11:55;100955.43;;;14.45;33.91
69219;BME280;56232;53.384;-2.732;2023-05-11T02:14:22;100956.92;;;14.46;33.79
69219;BME280;56232;53.384;-2.732;2023-05-11T02:16:47;100961.11;;;14.43;32.80
69219;BME280;56232;53.384;-2.732;2023-05-11T02:19:12;100960.28;;;14.32;33.15
69219;BME280;56232;53.384;-2.732;2023-05-11T02:21:36;100963.48;;;14.31;33.40
69219;BME280;56232;53.384;-2.732;2023-05-11T02:24:04;100964.86;;;14.78;33.73
69219;BME280;56232;53.384;-2.732;2023-05-11T02:26:27;100965.31;;;14.75;33.98
69219;BME280;56232;53.384;-2.732;2023-05-11T02:28:53;100966.47;;;14.29;34.11
69219;BME280;56232;53.384;-2.732;2023-05-11T02:31:23;100966.42;;;14.30;34.20
69219;BME280;56232;53.384;-2.732;2023-05-11T02:33:47;100964.84;;;14.33;34.03
69219;BME280;56232;53.384;-2.732;2023-05-11T02:36:13;100966.81;;;14.32;34.27
69219;BME280;56232;53.384;-2.732;2023-05-11T02:38:37;100969.55;;;14.30;34.46
69219;BME280;56232;53.384;-2.732;2023-05-11T02:41:05;100972.04;;;14.29;34.50
69219;BME280;56232;53.384;-2.732;2023-05-11T02:43:31;100974.31;;;14.25;34.58
69219;BME280;56232;53.384;-2.732;2023-05-11T02:45:55;100977.04;;;14.67;34.00
69219;BME280;56232;53.384;-2.732;2023-05-11T02:48:23;100980.71;;;13.99;33.89
69219;BME280;56232;53.384;-2.732;2023-05-11T02:50:44;100977.81;;;13.86;34.25
69219;BME280;56232;53.384;-2.732;2023-05-11T02:53:13;100978.43;;;14.93;34.50
69219;BME280;56232;53.384;-2.732;2023-05-11T02:55:35;100979.32;;;15.03;34.26
69219;BME280;56232;53.384;-2.732;2023-05-11T02:58:00;100978.60;;;15.00;34.38
69219;BME280;56232;53.384;-2.732;2023-05-11T03:00:26;100979.76;;;13.86;34.62
69219;BME280;56232;53.384;-2.732;2023-05-11T03:02:51;100976.88;;;13.91;34.29
69219;BME280;56232;53.384;-2.732;2023-05-11T03:05:17;100976.09;;;13.90;34.51
69219;BME280;56232;53.384;-2.732;2023-05-11T03:07:43;100977.37;;;14.42;34.62
69219;BME280;56232;53.384;-2.732;2023-05-11T03:10:09;100978.95;;;15.04;34.79
69219;BME280;56232;53.384;-2.732;2023-05-11T03:12:34;100979.30;;;14.54;34.72
69219;BME280;56232;53.384;-2.732;2023-05-11T03:15:01;100979.43;;;14.55;34.73
69219;BME280;56232;53.384;-2.732;2023-05-11T03:17:26;100980.73;;;14.11;34.73
69219;BME280;56232;53.384;-2.732;2023-05-11T03:19:51;100979.58;;;14.13;34.71
69219;BME280;56232;53.384;-2.732;2023-05-11T03:22:16;100979.45;;;14.66;34.77
69219;BME280;56232;53.384;-2.732;2023-05-11T03:24:42;100978.33;;;15.33;34.72
69219;BME280;56232;53.384;-2.732;2023-05-11T03:27:08;100976.83;;;14.27;34.81
69219;BME280;56232;53.384;-2.732;2023-05-11T03:29:33;100977.66;;;14.74;34.64
69219;BME280;56232;53.384;-2.732;2023-05-11T03:31:59;100975.24;;;14.20;34.22
69219;BME280;56232;53.384;-2.732;2023-05-11T03:34:24;100977.18;;;14.65;34.32
69219;BME280;56232;53.384;-2.732;2023-05-11T03:36:51;100975.58;;;14.09;34.51
69219;BME280;56232;53.384;-2.732;2023-05-11T03:39:16;100975.91;;;15.02;33.69
69219;BME280;56232;53.384;-2.732;2023-05-11T03:41:42;100973.30;;;14.88;34.15
69219;BME280;56232;53.384;-2.732;2023-05-11T03:44:07;100971.74;;;14.17;34.31
69219;BME280;56232;53.384;-2.732;2023-05-11T03:46:34;100971.13;;;13.54;33.68
69219;BME280;56232;53.384;-2.732;2023-05-11T03:48:58;100973.41;;;14.38;33.97
69219;BME280;56232;53.384;-2.732;2023-05-11T03:51:24;100972.48;;;13.64;34.19
69219;BME280;56232;53.384;-2.732;2023-05-11T03:53:49;100976.85;;;14.71;34.30
69219;BME280;56232;53.384;-2.732;2023-05-11T03:56:15;100980.08;;;14.09;34.39
69219;BME280;56232;53.384;-2.732;2023-05-11T03:58:40;100981.97;;;14.50;33.78
69219;BME280;56232;53.384;-2.732;2023-05-11T04:01:07;100984.18;;;13.95;33.17
69219;BME280;56232;53.384;-2.732;2023-05-11T04:03:32;100982.11;;;13.75;32.58
69219;BME280;56232;53.384;-2.732;2023-05-11T04:05:57;100984.32;;;13.62;33.16
69219;BME280;56232;53.384;-2.732;2023-05-11T04:08:23;100989.26;;;13.57;33.23
69219;BME280;56232;53.384;-2.732;2023-05-11T04:10:49;100989.65;;;13.58;33.48
69219;BME280;56232;53.384;-2.732;2023-05-11T04:13:14;100990.11;;;13.63;33.41
69219;BME280;56232;53.384;-2.732;2023-05-11T04:15:40;100990.19;;;13.61;33.32
69219;BME280;56232;53.384;-2.732;2023-05-11T04:18:05;100989.52;;;12.99;33.34
69219;BME280;56232;53.384;-2.732;2023-05-11T04:20:31;100989.17;;;14.11;32.99
69219;BME280;56232;53.384;-2.732;2023-05-11T04:22:57;100988.03;;;13.68;32.64
69219;BME280;56232;53.384;-2.732;2023-05-11T04:25:23;100988.88;;;13.59;32.77
69219;BME280;56232;53.384;-2.732;2023-05-11T04:27:48;100986.22;;;13.41;31.59
69219;BME280;56232;53.384;-2.732;2023-05-11T04:30:14;100987.85;;;13.21;32.87
69219;BME280;56232;53.384;-2.732;2023-05-11T04:32:39;100989.09;;;13.73;32.66
69219;BME280;56232;53.384;-2.732;2023-05-11T04:35:05;100989.07;;;14.18;33.17
69219;BME280;56232;53.384;-2.732;2023-05-11T04:37:31;100992.95;;;13.32;33.51
69219;BME280;56232;53.384;-2.732;2023-05-11T04:39:56;100997.15;;;13.54;33.85
69219;BME280;56232;53.384;-2.732;2023-05-11T04:42:21;100995.98;;;14.21;33.77
69219;BME280;56232;53.384;-2.732;2023-05-11T04:44:47;100998.04;;;13.80;33.81
69219;BME280;56232;53.384;-2.732;2023-05-11T04:47:13;100999.39;;;13.85;33.15
69219;BME280;56232;53.384;-2.732;2023-05-11T04:49:39;100998.84;;;13.85;32.55
69219;BME280;56232;53.384;-2.732;2023-05-11T04:52:04;100999.32;;;13.77;32.81
69219;BME280;56232;53.384;-2.732;2023-05-11T04:54:30;101001.33;;;13.71;32.32
69219;BME280;56232;53.384;-2.732;2023-05-11T04:56:55;101002.09;;;13.64;32.86
69219;BME280;56232;53.384;-2.732;2023-05-11T04:59:26;101004.76;;;13.63;32.37
69219;BME280;56232;53.384;-2.732;2023-05-11T05:01:46;101003.67;;;13.64;33.03
69219;BME280;56232;53.384;-2.732;2023-05-11T05:04:12;101006.86;;;14.17;32.43
69219;BME280;56232;53.384;-2.732;2023-05-11T05:06:38;101009.16;;;13.76;33.06
69219;BME280;56232;53.384;-2.732;2023-05-11T05:09:04;101010.31;;;13.19;32.92
69219;BME280;56232;53.384;-2.732;2023-05-11T05:11:29;101009.31;;;13.18;33.02
69219;BME280;56232;53.384;-2.732;2023-05-11T05:13:55;101015.61;;;13.89;33.33
69219;BME280;56232;53.384;-2.732;2023-05-11T05:16:21;101017.65;;;14.62;33.18
69219;BME280;56232;53.384;-2.732;2023-05-11T05:18:46;101022.31;;;14.33;33.43
69219;BME280;56232;53.384;-2.732;2023-05-11T05:21:12;101020.06;;;14.52;33.45
69219;BME280;56232;53.384;-2.732;2023-05-11T05:23:38;101025.09;;;14.10;33.14
69219;BME280;56232;53.384;-2.732;2023-05-11T05:26:03;101028.28;;;13.74;33.24
69219;BME280;56232;53.384;-2.732;2023-05-11T05:28:29;101029.29;;;15.06;33.30
69219;BME280;56232;53.384;-2.732;2023-05-11T05:30:54;101034.51;;;14.19;33.05
69219;BME280;56232;53.384;-2.732;2023-05-11T05:33:21;101037.70;;;14.34;33.27
69219;BME280;56232;53.384;-2.732;2023-05-11T05:35:46;101040.47;;;15.69;33.64
69219;BME280;56232;53.384;-2.732;2023-05-11T05:38:11;101041.33;;;14.85;33.60
69219;BME280;56232;53.384;-2.732;2023-05-11T05:40:37;101043.00;;;14.43;33.29
69219;BME280;56232;53.384;-2.732;2023-05-11T05:43:03;101044.38;;;15.21;33.29
69219;BME280;56232;53.384;-2.732;2023-05-11T05:45:28;101047.12;;;14.66;33.08
69219;BME280;56232;53.384;-2.732;2023-05-11T05:47:54;101048.59;;;15.35;32.77
69219;BME280;56232;53.384;-2.732;2023-05-11T05:50:21;101049.98;;;15.44;33.00
69219;BME280;56232;53.384;-2.732;2023-05-11T05:52:45;101052.49;;;15.56;33.02
69219;BME280;56232;53.384;-2.732;2023-05-11T05:55:11;101056.88;;;15.73;32.96
69219;BME280;56232;53.384;-2.732;2023-05-11T05:57:37;101061.66;;;14.83;33.11
69219;BME280;56232;53.384;-2.732;2023-05-11T06:00:03;101059.09;;;15.56;32.75
69219;BME280;56232;53.384;-2.732;2023-05-11T06:02:28;101061.66;;;15.77;31.92
69219;BME280;56232;53.384;-2.732;2023-05-11T06:04:54;101061.58;;;15.84;32.14
69219;BME280;56232;53.384;-2.732;2023-05-11T06:07:20;101064.34;;;16.60;32.19
69219;BME280;56232;53.384;-2.732;2023-05-11T06:09:45;101066.00;;;15.66;32.10
69219;BME280;56232;53.384;-2.732;2023-05-11T06:12:11;101070.79;;;15.79;32.64
69219;BME280;56232;53.384;-2.732;2023-05-11T06:14:36;101073.81;;;16.36;32.51
69219;BME280;56232;53.384;-2.732;2023-05-11T06:17:02;101077.64;;;15.83;31.39
69219;BME280;56232;53.384;-2.732;2023-05-11T06:19:27;101081.36;;;15.71;31.21
69219;BME280;56232;53.384;-2.732;2023-05-11T06:21:53;101083.23;;;15.59;31.11
69219;BME280;56232;53.384;-2.732;2023-05-11T06:24:24;101088.81;;;16.21;31.47
69219;BME280;56232;53.384;-2.732;2023-05-11T06:26:44;101091.65;;;15.83;31.29
69219;BME280;56232;53.384;-2.732;2023-05-11T06:29:10;101094.12;;;16.00;31.43
69219;BME280;56232;53.384;-2.732;2023-05-11T06:31:36;101094.27;;;15.87;31.39
69219;BME280;56232;53.384;-2.732;2023-05-11T06:34:01;101095.98;;;16.82;30.88
69219;BME280;56232;53.384;-2.732;2023-05-11T06:36:27;101097.74;;;17.24;31.06
69219;BME280;56232;53.384;-2.732;2023-05-11T06:38:53;101099.60;;;17.59;31.45
69219;BME280;56232;53.384;-2.732;2023-05-11T06:41:19;101097.67;;;16.77;30.66
69219;BME280;56232;53.384;-2.732;2023-05-11T06:43:44;101098.01;;;17.11;30.20
69219;BME280;56232;53.384;-2.732;2023-05-11T06:46:09;101095.92;;;17.40;30.11
69219;BME280;56232;53.384;-2.732;2023-05-11T06:48:35;101099.56;;;17.84;30.15
69219;BME280;56232;53.384;-2.732;2023-05-11T06:51:00;101101.82;;;18.43;30.12
69219;BME280;56232;53.384;-2.732;2023-05-11T06:53:26;101104.13;;;18.44;29.31
69219;BME280;56232;53.384;-2.732;2023-05-11T06:55:53;101105.53;;;19.36;29.24
69219;BME280;56232;53.384;-2.732;2023-05-11T06:58:17;101107.20;;;18.50;28.92
69219;BME280;56232;53.384;-2.732;2023-05-11T07:00:42;101105.61;;;18.87;29.06
69219;BME280;56232;53.384;-2.732;2023-05-11T07:03:08;101108.00;;;20.01;27.86
69219;BME280;56232;53.384;-2.732;2023-05-11T07:05:35;101110.45;;;18.65;27.17
69219;BME280;56232;53.384;-2.732;2023-05-11T07:07:59;101107.66;;;19.77;27.59
69219;BME280;56232;53.384;-2.732;2023-05-11T07:10:25;101110.23;;;20.15;26.19
69219;BME280;56232;53.384;-2.732;2023-05-11T07:12:51;101108.04;;;20.56;25.96
69219;BME280;56232;53.384;-2.732;2023-05-11T07:15:16;101106.05;;;20.33;26.36
69219;BME280;56232;53.384;-2.732;2023-05-11T07:17:42;101107.18;;;20.15;26.69
69219;BME280;56232;53.384;-2.732;2023-05-11T07:20:08;101106.66;;;20.42;26.52
69219;BME280;56232;53.384;-2.732;2023-05-11T07:22:33;101114.74;;;20.92;26.46
69219;BME280;56232;53.384;-2.732;2023-05-11T07:24:59;101113.94;;;21.53;25.96
69219;BME280;56232;53.384;-2.732;2023-05-11T07:27:24;101116.47;;;22.55;25.25
69219;BME280;56232;53.384;-2.732;2023-05-11T07:29:50;101116.27;;;22.21;25.13
69219;BME280;56232;53.384;-2.732;2023-05-11T07:32:15;101115.31;;;23.37;24.58
69219;BME280;56232;53.384;-2.732;2023-05-11T07:34:41;101116.29;;;23.79;24.13
69219;BME280;56232;53.384;-2.732;2023-05-11T07:37:06;101114.89;;;23.62;23.87
69219;BME280;56232;53.384;-2.732;2023-05-11T07:39:32;101116.93;;;23.69;23.87
69219;BME280;56232;53.384;-2.732;2023-05-11T07:41:58;101116.15;;;24.29;23.63
69219;BME280;56232;53.384;-2.732;2023-05-11T07:44:23;101116.21;;;23.21;23.39
69219;BME280;56232;53.384;-2.732;2023-05-11T07:46:49;101114.52;;;24.02;22.97
69219;BME280;56232;53.384;-2.732;2023-05-11T07:49:14;101113.02;;;25.67;21.97
69219;BME280;56232;53.384;-2.732;2023-05-11T07:51:40;101114.73;;;26.67;21.13
69219;BME280;56232;53.384;-2.732;2023-05-11T07:54:05;101111.37;;;27.76;20.73
69219;BME280;56232;53.384;-2.732;2023-05-11T07:56:31;101114.49;;;28.04;20.42
69219;BME280;56232;53.384;-2.732;2023-05-11T07:58:56;101118.37;;;26.48;20.46
69219;BME280;56232;53.384;-2.732;2023-05-11T08:01:22;101121.62;;;26.11;21.05
69219;BME280;56232;53.384;-2.732;2023-05-11T08:03:47;101124.61;;;25.67;21.33
69219;BME280;56232;53.384;-2.732;2023-05-11T08:06:13;101126.84;;;26.97;21.03
69219;BME280;56232;53.384;-2.732;2023-05-11T08:08:38;101127.24;;;26.87;20.74
69219;BME280;56232;53.384;-2.732;2023-05-11T08:11:04;101129.43;;;26.16;20.91
69219;BME280;56232;53.384;-2.732;2023-05-11T08:13:29;101135.34;;;25.07;21.36
69219;BME280;56232;53.384;-2.732;2023-05-11T08:15:55;101134.15;;;24.08;21.82
69219;BME280;56232;53.384;-2.732;2023-05-11T08:18:21;101135.20;;;24.88;22.11
69219;BME280;56232;53.384;-2.732;2023-05-11T08:20:46;101136.81;;;24.90;22.34
69219;BME280;56232;53.384;-2.732;2023-05-11T08:23:11;101135.13;;;24.53;22.47
69219;BME280;56232;53.384;-2.732;2023-05-11T08:25:37;101136.36;;;24.33;22.60
69219;BME280;56232;53.384;-2.732;2023-05-11T08:28:03;101136.17;;;23.93;23.00
69219;BME280;56232;53.384;-2.732;2023-05-11T08:30:28;101143.71;;;23.06;23.30
69219;BME280;56232;53.384;-2.732;2023-05-11T08:32:54;101144.12;;;23.40;23.49
69219;BME280;56232;53.384;-2.732;2023-05-11T08:35:20;101144.75;;;23.76;23.32
69219;BME280;56232;53.384;-2.732;2023-05-11T08:37:45;101143.83;;;24.27;23.12
69219;BME280;56232;53.384;-2.732;2023-05-11T08:40:11;101145.39;;;23.85;23.05
69219;BME280;56232;53.384;-2.732;2023-05-11T08:42:39;101145.54;;;24.59;23.13
69219;BME280;56232;53.384;-2.732;2023-05-11T08:45:03;101143.98;;;24.57;22.84
69219;BME280;56232;53.384;-2.732;2023-05-11T08:47:27;101143.77;;;25.00;22.25
69219;BME280;56232;53.384;-2.732;2023-05-11T08:49:53;101146.70;;;26.08;21.73
69219;BME280;56232;53.384;-2.732;2023-05-11T08:52:19;101146.99;;;26.74;21.51
69219;BME280;56232;53.384;-2.732;2023-05-11T08:54:44;101151.08;;;26.23;21.75
69219;BME280;56232;53.384;-2.732;2023-05-11T08:57:10;101149.92;;;25.28;21.78
69219;BME280;56232;53.384;-2.732;2023-05-11T08:59:35;101149.74;;;24.39;22.31
69219;BME280;56232;53.384;-2.732;2023-05-11T09:02:01;101148.73;;;25.43;22.15
69219;BME280;56232;53.384;-2.732;2023-05-11T09:04:27;101153.55;;;25.59;22.06
69219;BME280;56232;53.384;-2.732;2023-05-11T09:06:52;101153.20;;;26.40;21.82
69219;BME280;56232;53.384;-2.732;2023-05-11T09:09:17;101146.00;;;27.16;21.11
69219;BME280;56232;53.384;-2.732;2023-05-11T09:11:43;101144.10;;;28.17;20.42
69219;BME280;56232;53.384;-2.732;2023-05-11T09:14:08;101144.77;;;28.80;19.94
69219;BME280;56232;53.384;-2.732;2023-05-11T09:16:33;101145.31;;;30.23;19.14
69219;BME280;56232;53.384;-2.732;2023-05-11T09:19:00;101149.41;;;30.03;19.15
69219;BME280;56232;53.384;-2.732;2023-05-11T09:21:25;101149.42;;;29.93;19.35
69219;BME280;56232;53.384;-2.732;2023-05-11T09:23:50;101152.86;;;29.04;19.86
69219;BME280;56232;53.384;-2.732;2023-05-11T09:26:19;101154.23;;;28.10;20.52
69219;BME280;56232;53.384;-2.732;2023-05-11T09:28:47;101155.44;;;27.53;21.02
69219;BME280;56232;53.384;-2.732;2023-05-11T09:31:07;101156.50;;;27.12;21.19
69219;BME280;56232;53.384;-2.732;2023-05-11T09:33:32;101158.41;;;27.21;21.48
69219;BME280;56232;53.384;-2.732;2023-05-11T09:35:58;101155.65;;;26.13;21.61
69219;BME280;56232;53.384;-2.732;2023-05-11T09:38:25;101157.97;;;26.04;21.91
69219;BME280;56232;53.384;-2.732;2023-05-11T09:40:50;101156.91;;;26.42;22.00
69219;BME280;56232;53.384;-2.732;2023-05-11T09:43:16;101156.99;;;26.68;22.08
69219;BME280;56232;53.384;-2.732;2023-05-11T09:45:41;101155.78;;;27.09;21.88
69219;BME280;56232;53.384;-2.732;2023-05-11T09:48:06;101152.32;;;28.78;20.47
69219;BME280;56232;53.384;-2.732;2023-05-11T09:50:32;101148.51;;;30.30;19.70
69219;BME280;56232;53.384;-2.732;2023-05-11T09:52:57;101147.36;;;29.05;19.90
69219;BME280;56232;53.384;-2.732;2023-05-11T09:55:22;101150.00;;;29.03;20.18
69219;BME280;56232;53.384;-2.732;2023-05-11T09:57:53;101151.39;;;28.47;20.34
69219;BME280;56232;53.384;-2.732;2023-05-11T10:00:14;101149.99;;;27.47;20.92
69219;BME280;56232;53.384;-2.732;2023-05-11T10:02:39;101158.87;;;25.91;21.71
69219;BME280;56232;53.384;-2.732;2023-05-11T10:05:10;101158.21;;;25.54;22.40
69219;BME280;56232;53.384;-2.732;2023-05-11T10:07:31;101156.98;;;24.56;22.99
69219;BME280;56232;53.384;-2.732;2023-05-11T10:09:56;101158.75;;;25.07;23.27
69219;BME280;56232;53.384;-2.732;2023-05-11T10:12:22;101158.13;;;24.48;23.48
69219;BME280;56232;53.384;-2.732;2023-05-11T10:14:48;101161.40;;;24.45;23.67
69219;BME280;56232;53.384;-2.732;2023-05-11T10:17:13;101159.72;;;24.33;24.12
69219;BME280;56232;53.384;-2.732;2023-05-11T10:19:37;101162.99;;;23.98;24.29
69219;BME280;56232;53.384;-2.732;2023-05-11T10:22:04;101164.35;;;24.00;24.48
69219;BME280;56232;53.384;-2.732;2023-05-11T10:24:30;101160.31;;;23.61;24.43
69219;BME280;56232;53.384;-2.732;2023-05-11T10:26:55;101164.25;;;22.94;24.40
69219;BME280;56232;53.384;-2.732;2023-05-11T10:29:22;101165.87;;;24.01;24.50
69219;BME280;56232;53.384;-2.732;2023-05-11T10:31:47;101159.61;;;23.50;24.41
69219;BME280;56232;53.384;-2.732;2023-05-11T10:34:11;101158.53;;;24.96;24.04
69219;BME280;56232;53.384;-2.732;2023-05-11T10:36:36;101160.53;;;25.91;23.00
69219;BME280;56232;53.384;-2.732;2023-05-11T10:39:02;101153.80;;;29.25;21.14
69219;BME280;56232;53.384;-2.732;2023-05-11T10:41:46;101153.77;;;30.81;19.85
69219;BME280;56232;53.384;-2.732;2023-05-11T10:44:08;101158.66;;;31.51;19.31
69219;BME280;56232;53.384;-2.732;2023-05-11T10:46:32;101164.02;;;30.92;19.09
69219;BME280;56232;53.384;-2.732;2023-05-11T10:48:55;101162.06;;;31.00;19.78
69219;BME280;56232;53.384;-2.732;2023-05-11T10:51:21;101166.34;;;30.72;19.46
69219;BME280;56232;53.384;-2.732;2023-05-11T10:53:47;101162.87;;;30.27;19.96
69219;BME280;56232;53.384;-2.732;2023-05-11T10:56:11;101164.69;;;28.32;20.37
69219;BME280;56232;53.384;-2.732;2023-05-11T10:58:35;101165.65;;;28.55;21.12
69219;BME280;56232;53.384;-2.732;2023-05-11T11:03:17;101164.64;;;27.57;21.97
69219;BME280;56232;53.384;-2.732;2023-05-11T11:05:42;101162.65;;;26.85;22.07
69219;BME280;56232;53.384;-2.732;2023-05-11T11:08:08;101170.23;;;25.22;23.29
69219;BME280;56232;53.384;-2.732;2023-05-11T11:10:34;101166.20;;;25.31;23.65
69219;BME280;56232;53.384;-2.732;2023-05-11T11:13:02;101163.92;;;25.01;24.01
69219;BME280;56232;53.384;-2.732;2023-05-11T11:15:24;101167.63;;;24.68;24.53
69219;BME280;56232;53.384;-2.732;2023-05-11T11:22:43;101168.31;;;24.74;24.56
69219;BME280;56232;53.384;-2.732;2023-05-11T11:25:07;101171.97;;;23.66;24.93
69219;BME280;56232;53.384;-2.732;2023-05-11T11:32:24;101177.03;;;23.37;25.59
69219;BME280;56232;53.384;-2.732;2023-05-11T11:34:49;101177.77;;;23.07;25.71
69219;BME280;56232;53.384;-2.732;2023-05-11T11:37:14;101178.61;;;23.30;26.00
69219;BME280;56232;53.384;-2.732;2023-05-11T11:39:45;101175.46;;;23.46;25.89
69219;BME280;56232;53.384;-2.732;2023-05-11T11:42:07;101176.60;;;23.27;25.76
69219;BME280;56232;53.384;-2.732;2023-05-11T11:44:32;101175.65;;;23.21;25.63
69219;BME280;56232;53.384;-2.732;2023-05-11T11:49:26;101172.86;;;24.58;24.87
69219;BME280;56232;53.384;-2.732;2023-05-11T11:51:47;101170.46;;;24.62;24.17
69219;BME280;56232;53.384;-2.732;2023-05-11T11:56:39;101171.26;;;25.12;23.75
69219;BME280;56232;53.384;-2.732;2023-05-11T11:59:04;101172.29;;;25.56;23.62
69219;BME280;56232;53.384;-2.732;2023-05-11T12:01:36;101170.70;;;25.84;23.46
69219;BME280;56232;53.384;-2.732;2023-05-11T12:06:22;101168.73;;;26.71;23.53
69219;BME280;56232;53.384;-2.732;2023-05-11T12:08:46;101162.10;;;26.51;23.30
69219;BME280;56232;53.384;-2.732;2023-05-11T12:11:21;101163.18;;;26.25;23.47
69219;BME280;56232;53.384;-2.732;2023-05-11T12:13:37;101160.22;;;26.62;23.25
69219;BME280;56232;53.384;-2.732;2023-05-11T12:16:07;101160.96;;;26.53;23.01
69219;BME280;56232;53.384;-2.732;2023-05-11T12:18:28;101158.06;;;26.57;22.63
69219;BME280;56232;53.384;-2.732;2023-05-11T12:20:54;101161.47;;;26.58;23.01
69219;BME280;56232;53.384;-2.732;2023-05-11T12:23:20;101158.42;;;26.62;23.39
69219;BME280;56232;53.384;-2.732;2023-05-11T12:28:10;101163.44;;;26.24;21.80
69219;BME280;56232;53.384;-2.732;2023-05-11T12:30:36;101163.62;;;25.99;21.56
69219;BME280;56232;53.384;-2.732;2023-05-11T12:33:01;101163.98;;;25.90;22.69
69219;BME280;56232;53.384;-2.732;2023-05-11T12:35:29;101165.76;;;25.10;23.50
69219;BME280;56232;53.384;-2.732;2023-05-11T12:37:53;101166.08;;;25.52;23.11
69219;BME280;56232;53.384;-2.732;2023-05-11T12:40:18;101165.90;;;24.28;24.13
69219;BME280;56232;53.384;-2.732;2023-05-11T12:42:49;101168.48;;;24.16;25.43
69219;BME280;56232;53.384;-2.732;2023-05-11T12:45:10;101168.54;;;24.00;25.09
69219;BME280;56232;53.384;-2.732;2023-05-11T12:47:35;101167.61;;;24.40;23.00
69219;BME280;56232;53.384;-2.732;2023-05-11T12:50:00;101172.38;;;24.14;25.29
69219;BME280;56232;53.384;-2.732;2023-05-11T12:52:26;101170.86;;;23.56;25.67